createdAt,value
2022-11-15T00:00:53.194Z,14.70
2022-11-15T00:03:37.804Z,13.83
2022-11-15T00:06:22.517Z,13.50
2022-11-15T00:09:07.277Z,11.00
2022-11-15T00:11:52.314Z,11.77
2022-11-15T00:14:37.024Z,12.37
2022-11-15T00:17:21.456Z,11.97
2022-11-15T00:20:06.865Z,17.73
2022-11-15T00:22:51.732Z,16.00
2022-11-15T00:25:36.672Z,11.77
2022-11-15T00:28:21.217Z,12.17
2022-11-15T00:31:12.868Z,11.70
2022-11-15T00:33:57.505Z,13.33
2022-11-15T00:36:41.977Z,12.20
2022-11-15T00:39:26.496Z,14.70
2022-11-15T00:42:10.942Z,13.03
2022-11-15T00:44:55.542Z,10.70
2022-11-15T00:47:40.047Z,12.27
2022-11-15T00:50:24.609Z,12.63
2022-11-15T00:53:09.252Z,10.57
2022-11-15T00:55:54.268Z,13.07
2022-11-15T00:58:39.135Z,10.43
2022-11-15T01:01:24.088Z,10.73
2022-11-15T01:04:08.535Z,11.60
2022-11-15T01:06:53.877Z,12.23
2022-11-15T01:09:38.883Z,12.77
2022-11-15T01:12:23.389Z,10.90
2022-11-15T01:15:08.517Z,13.47
2022-11-15T01:17:52.996Z,11.17
2022-11-15T01:20:44.022Z,11.43
2022-11-15T01:23:29.446Z,12.73
2022-11-15T01:26:15.875Z,11.93
2022-11-15T01:29:00.436Z,10.50
2022-11-15T01:31:44.968Z,11.47
2022-11-15T01:34:29.628Z,10.30
2022-11-15T01:37:14.180Z,10.77
2022-11-15T01:39:58.688Z,9.17
2022-11-15T01:42:43.507Z,9.17
2022-11-15T01:45:28.346Z,9.70
2022-11-15T01:48:13.024Z,7.93
2022-11-15T01:50:59.820Z,10.47
2022-11-15T01:53:52.447Z,9.20
2022-11-15T01:56:51.202Z,8.73
2022-11-15T01:59:40.850Z,10.03
2022-11-15T02:02:25.943Z,9.27
2022-11-15T02:05:11.716Z,9.93
2022-11-15T02:07:57.301Z,7.33
2022-11-15T02:10:42.062Z,8.63
2022-11-15T02:13:28.152Z,9.70
2022-11-15T02:16:43.700Z,7.50
2022-11-15T02:19:47.513Z,7.20
2022-11-15T02:23:28.805Z,8.50
2022-11-15T02:26:50.977Z,7.60
2022-11-15T02:30:18.115Z,8.20
2022-11-15T02:33:18.748Z,7.07
2022-11-15T02:36:18.817Z,7.20
2022-11-15T02:39:41.487Z,6.87
2022-11-15T02:42:52.087Z,9.40
2022-11-15T02:45:48.711Z,8.00
2022-11-15T02:48:35.723Z,6.57
2022-11-15T02:51:21.089Z,7.03
2022-11-15T02:54:06.251Z,6.63
2022-11-15T02:56:55.471Z,8.10
2022-11-15T03:00:04.229Z,7.47
2022-11-15T03:03:18.503Z,6.60
2022-11-15T03:06:18.330Z,7.13
2022-11-15T03:09:24.049Z,8.53
2022-11-15T03:12:27.727Z,9.37
2022-11-15T03:15:26.790Z,10.47
2022-11-15T03:18:30.144Z,6.30
2022-11-15T03:21:17.867Z,7.17
2022-11-15T03:24:06.897Z,8.53
2022-11-15T03:26:54.948Z,7.90
2022-11-15T03:29:48.814Z,9.20
2022-11-15T03:32:43.014Z,7.07
2022-11-15T03:35:33.968Z,8.40
2022-11-15T03:38:26.640Z,8.73
2022-11-15T03:41:37.061Z,8.77
2022-11-15T03:44:51.236Z,7.70
2022-11-15T03:48:01.860Z,8.60
2022-11-15T03:50:48.253Z,7.67
2022-11-15T03:53:33.566Z,7.87
2022-11-15T03:56:18.759Z,8.10
2022-11-15T03:59:03.247Z,7.57
2022-11-15T04:01:48.008Z,8.30
2022-11-15T04:04:32.426Z,8.27
2022-11-15T04:07:17.105Z,11.10
2022-11-15T04:10:02.660Z,7.33
2022-11-15T04:12:52.456Z,6.77
2022-11-15T04:15:37.284Z,6.97
2022-11-15T04:18:22.137Z,7.00
2022-11-15T04:21:27.355Z,9.07
2022-11-15T04:24:14.584Z,8.83
2022-11-15T04:26:59.551Z,7.43
2022-11-15T04:29:44.303Z,10.10
2022-11-15T04:32:29.365Z,7.07
2022-11-15T04:35:14.010Z,7.50
2022-11-15T04:37:59.519Z,7.47
2022-11-15T04:40:44.310Z,6.73
2022-11-15T04:43:29.576Z,7.47
2022-11-15T04:46:14.513Z,6.20
2022-11-15T04:48:59.660Z,7.47
2022-11-15T04:51:45.383Z,6.83
2022-11-15T04:54:30.014Z,7.57
2022-11-15T04:57:14.977Z,6.70
2022-11-15T04:59:59.563Z,7.67
2022-11-15T05:03:02.627Z,5.00
2022-11-15T05:05:47.317Z,6.27
2022-11-15T05:08:32.611Z,5.83
2022-11-15T05:11:17.675Z,6.00
2022-11-15T05:14:02.555Z,5.50
2022-11-15T05:16:47.711Z,5.67
2022-11-15T05:19:32.652Z,6.23
2022-11-15T05:22:17.154Z,5.27
2022-11-15T05:25:01.699Z,4.60
2022-11-15T05:27:46.252Z,5.17
2022-11-15T05:30:30.947Z,5.73
2022-11-15T05:33:15.743Z,5.37
2022-11-15T05:36:44.886Z,4.97
2022-11-15T05:39:29.890Z,6.80
2022-11-15T05:42:16.920Z,5.07
2022-11-15T05:45:06.435Z,5.57
2022-11-15T05:47:56.257Z,4.80
2022-11-15T05:50:46.014Z,5.00
2022-11-15T05:53:31.933Z,4.83
2022-11-15T05:56:16.937Z,4.47
2022-11-15T05:59:02.647Z,4.97
2022-11-15T06:01:47.618Z,6.10
2022-11-15T06:04:32.330Z,4.60
2022-11-15T06:07:17.454Z,4.50
2022-11-15T06:10:02.708Z,4.77
2022-11-15T06:12:47.597Z,4.67
2022-11-15T06:15:34.517Z,5.17
2022-11-15T06:18:19.253Z,4.30
2022-11-15T06:21:05.271Z,4.20
2022-11-15T06:23:50.044Z,4.67
2022-11-15T06:26:34.773Z,4.73
2022-11-15T06:29:19.487Z,5.10
2022-11-15T06:32:04.497Z,5.10
2022-11-15T06:34:50.023Z,5.43
2022-11-15T06:37:34.710Z,5.00
2022-11-15T06:40:19.485Z,5.23
2022-11-15T06:43:06.182Z,4.97
2022-11-15T06:45:50.851Z,5.07
2022-11-15T06:48:36.484Z,4.80
2022-11-15T06:51:21.126Z,5.30
2022-11-15T06:54:05.726Z,4.83
2022-11-15T06:56:50.579Z,4.57
2022-11-15T06:59:40.291Z,5.10
2022-11-15T07:02:25.620Z,6.40
2022-11-15T07:05:11.440Z,4.37
2022-11-15T07:07:57.949Z,3.90
2022-11-15T07:10:42.936Z,4.87
2022-11-15T07:13:33.409Z,4.00
2022-11-15T07:16:18.485Z,4.63
2022-11-15T07:19:03.083Z,4.37
2022-11-15T07:21:47.772Z,3.87
2022-11-15T07:24:32.698Z,6.00
2022-11-15T07:27:17.847Z,3.90
2022-11-15T07:30:03.547Z,5.63
2022-11-15T07:32:55.570Z,4.83
2022-11-15T07:35:40.161Z,4.20
2022-11-15T07:38:24.874Z,4.13
2022-11-15T07:41:10.119Z,4.57
2022-11-15T07:43:54.987Z,3.93
2022-11-15T07:46:39.613Z,7.20
2022-11-15T07:49:24.317Z,4.93
2022-11-15T07:52:08.797Z,4.00
2022-11-15T07:54:53.403Z,9.10
2022-11-15T07:57:38.294Z,4.03
2022-11-15T08:00:23.159Z,5.53
2022-11-15T08:03:10.378Z,4.10
2022-11-15T08:05:55.488Z,4.20
2022-11-15T08:08:40.326Z,4.00
2022-11-15T08:11:24.901Z,4.33
2022-11-15T08:14:09.659Z,3.67
2022-11-15T08:16:55.567Z,3.97
2022-11-15T08:19:40.225Z,3.77
2022-11-15T08:22:24.879Z,3.10
2022-11-15T08:25:09.355Z,4.53
2022-11-15T08:27:56.456Z,4.53
2022-11-15T08:30:43.451Z,5.00
2022-11-15T08:33:28.961Z,4.10
2022-11-15T08:36:16.671Z,4.70
2022-11-15T08:39:01.564Z,3.90
2022-11-15T08:41:46.183Z,9.77
2022-11-15T08:44:30.669Z,5.03
2022-11-15T08:47:15.305Z,3.90
2022-11-15T08:50:00.344Z,5.13
2022-11-15T08:52:45.119Z,5.50
2022-11-15T08:55:29.749Z,4.17
2022-11-15T08:58:14.308Z,3.87
2022-11-15T09:00:58.927Z,4.20
2022-11-15T09:03:43.429Z,3.67
2022-11-15T09:06:28.237Z,4.93
2022-11-15T09:09:12.969Z,4.03
2022-11-15T09:12:02.534Z,3.83
2022-11-15T09:14:47.849Z,3.97
2022-11-15T09:17:32.355Z,4.03
2022-11-15T09:20:17.057Z,3.77
2022-11-15T09:23:03.578Z,4.67
2022-11-15T09:25:48.713Z,7.00
2022-11-15T09:28:34.741Z,3.90
2022-11-15T09:31:22.222Z,4.30
2022-11-15T09:34:07.216Z,3.30
2022-11-15T09:36:51.655Z,4.30
2022-11-15T09:39:36.167Z,5.60
2022-11-15T09:43:03.445Z,4.73
2022-11-15T09:46:13.737Z,3.77
2022-11-15T09:49:01.948Z,3.10
2022-11-15T09:51:57.244Z,5.30
2022-11-15T09:54:56.480Z,4.30
2022-11-15T09:57:44.071Z,3.80
2022-11-15T10:03:15.479Z,4.77
2022-11-15T10:05:46.198Z,2.93
2022-11-15T10:08:53.170Z,3.90
2022-11-15T10:11:38.304Z,3.50
2022-11-15T10:14:21.126Z,3.53
2022-11-15T10:17:21.676Z,4.10
2022-11-15T10:20:05.283Z,2.80
2022-11-15T10:22:53.855Z,3.20
2022-11-15T10:25:27.922Z,2.73
2022-11-15T10:28:14.905Z,5.33
2022-11-15T10:30:49.456Z,3.80
2022-11-15T10:33:37.487Z,2.80
2022-11-15T10:36:20.622Z,2.87
2022-11-15T10:38:49.780Z,2.77
2022-11-15T10:41:21.161Z,3.93
2022-11-15T10:44:21.445Z,2.33
2022-11-15T10:47:27.560Z,2.87
2022-11-15T10:50:07.870Z,1.97
2022-11-15T10:52:36.941Z,2.50
2022-11-15T10:55:23.203Z,2.30
2022-11-15T10:58:21.577Z,2.27
2022-11-15T11:00:48.170Z,2.00
2022-11-15T11:03:38.396Z,2.00
2022-11-15T11:06:17.413Z,2.00
2022-11-15T11:09:19.335Z,2.87
2022-11-15T11:11:51.580Z,1.70
2022-11-15T11:14:23.667Z,1.93
2022-11-15T11:17:20.889Z,1.73
2022-11-15T11:20:10.800Z,2.00
2022-11-15T11:23:04.366Z,1.77
2022-11-15T11:26:03.500Z,2.03
2022-11-15T11:28:45.134Z,2.10
2022-11-15T11:31:36.318Z,2.57
2022-11-15T11:34:32.401Z,2.43
2022-11-15T11:37:34.488Z,2.10
2022-11-15T11:40:32.680Z,3.17
2022-11-15T11:43:45.044Z,1.50
2022-11-15T11:46:42.022Z,1.40
2022-11-15T11:49:23.147Z,1.67
2022-11-15T11:52:27.005Z,2.07
2022-11-15T11:55:02.432Z,2.47
2022-11-15T11:57:49.004Z,5.70
2022-11-15T12:00:21.661Z,2.37
2022-11-15T12:03:11.491Z,2.37
2022-11-15T12:05:42.789Z,1.60
2022-11-15T12:08:39.052Z,1.90
2022-11-15T12:11:35.767Z,1.63
2022-11-15T12:14:11.551Z,3.77
2022-11-15T12:16:42.941Z,1.93
2022-11-15T12:19:09.242Z,1.77
2022-11-15T12:21:39.581Z,3.13
2022-11-15T12:24:35.032Z,3.70
2022-11-15T12:27:27.680Z,2.20
2022-11-15T12:30:07.635Z,3.33
2022-11-15T12:32:41.333Z,2.63
2022-11-15T12:35:58.287Z,2.90
2022-11-15T12:39:00.661Z,1.90
2022-11-15T12:41:36.394Z,2.90
2022-11-15T12:44:04.657Z,2.13
2022-11-15T12:46:30.778Z,1.93
2022-11-15T12:49:22.935Z,2.00
2022-11-15T12:51:49.479Z,3.53
2022-11-15T12:54:24.927Z,2.20
2022-11-15T12:57:03.218Z,5.33
2022-11-15T13:00:02.017Z,4.90
2022-11-15T13:02:48.795Z,2.43
2022-11-15T13:05:23.513Z,2.23
2022-11-15T13:07:50.642Z,3.00
2022-11-15T13:10:16.729Z,2.50
2022-11-15T13:12:45.905Z,2.57
2022-11-15T13:15:12.026Z,2.97
2022-11-15T13:17:45.149Z,2.87
2022-11-15T13:20:11.463Z,2.53
2022-11-15T13:23:02.425Z,4.80
2022-11-15T13:26:05.474Z,3.23
2022-11-15T13:28:38.924Z,2.47
2022-11-15T13:31:41.811Z,1.87
2022-11-15T13:34:51.660Z,2.63
2022-11-15T13:37:21.582Z,2.20
2022-11-15T13:39:49.598Z,6.57
2022-11-15T13:42:19.066Z,4.87
2022-11-15T13:45:02.638Z,3.07
2022-11-15T13:47:31.760Z,9.43
2022-11-15T13:49:59.470Z,3.00
2022-11-15T13:52:37.261Z,2.80
2022-11-15T13:55:19.771Z,3.23
2022-11-15T13:57:59.286Z,2.50
2022-11-15T14:00:45.192Z,3.00
2022-11-15T14:03:25.627Z,6.37
2022-11-15T14:06:17.574Z,4.00
2022-11-15T14:09:11.360Z,3.07
2022-11-15T14:11:49.953Z,2.60
2022-11-15T14:14:16.224Z,3.20
2022-11-15T14:16:45.778Z,3.07
2022-11-15T14:19:20.984Z,3.83
2022-11-15T14:22:15.171Z,3.20
2022-11-15T14:24:45.170Z,4.50
2022-11-15T14:27:28.413Z,3.33
2022-11-15T14:29:55.306Z,1.90
2022-11-15T14:32:28.466Z,4.00
2022-11-15T14:35:00.727Z,3.53
2022-11-15T14:37:34.957Z,2.40
2022-11-15T14:40:06.615Z,2.23
2022-11-15T14:42:33.011Z,2.60
2022-11-15T14:44:59.223Z,4.80
2022-11-15T14:47:25.426Z,2.50
2022-11-15T14:49:51.688Z,3.07
2022-11-15T14:52:32.199Z,3.07
2022-11-15T14:55:01.420Z,2.73
2022-11-15T14:57:27.836Z,2.77
2022-11-15T14:59:54.052Z,2.60
2022-11-15T15:02:25.581Z,3.37
2022-11-15T15:04:51.740Z,3.03
2022-11-15T15:07:19.205Z,3.17
2022-11-15T15:09:46.611Z,2.73
2022-11-15T15:12:22.098Z,2.97
2022-11-15T15:14:50.450Z,3.63
2022-11-15T15:17:17.915Z,3.00
2022-11-15T15:19:44.112Z,2.60
2022-11-15T15:22:21.975Z,6.43
2022-11-15T15:24:48.681Z,5.23
2022-11-15T15:27:14.917Z,3.17
2022-11-15T15:29:41.588Z,2.37
2022-11-15T15:32:10.335Z,3.17
2022-11-15T15:34:36.749Z,4.20
2022-11-15T15:37:23.318Z,3.30
2022-11-15T15:39:55.512Z,5.57
2022-11-15T15:42:23.391Z,5.10
2022-11-15T15:44:51.008Z,2.97
2022-11-15T15:47:23.533Z,4.23
2022-11-15T15:49:50.995Z,3.47
2022-11-15T15:52:17.546Z,3.07
2022-11-15T15:54:44.092Z,3.10
2022-11-15T15:57:13.844Z,2.40
2022-11-15T15:59:40.688Z,3.47
2022-11-15T16:02:12.033Z,3.23
2022-11-15T16:04:38.374Z,2.70
2022-11-15T16:07:04.651Z,6.60
2022-11-15T16:09:49.694Z,9.70
2022-11-15T16:12:16.800Z,5.23
2022-11-15T16:14:43.342Z,5.20
2022-11-15T16:17:20.831Z,3.80
2022-11-15T16:19:47.566Z,5.27
2022-11-15T16:22:13.743Z,4.40
2022-11-15T16:24:39.926Z,3.57
2022-11-15T16:27:16.167Z,3.57
2022-11-15T16:29:42.627Z,3.70
2022-11-15T16:32:09.050Z,3.80
2022-11-15T16:34:40.463Z,7.40
2022-11-15T16:37:24.348Z,6.53
2022-11-15T16:39:50.945Z,2.60
2022-11-15T16:42:17.264Z,7.83
2022-11-15T16:44:44.393Z,3.13
2022-11-15T16:47:19.886Z,4.90
2022-11-15T16:49:46.567Z,3.03
2022-11-15T16:52:14.013Z,2.90
2022-11-15T16:54:41.647Z,3.73
2022-11-15T16:57:10.525Z,4.53
2022-11-15T16:59:38.425Z,3.37
2022-11-15T17:02:11.948Z,2.50
2022-11-15T17:04:38.211Z,4.10
2022-11-15T17:07:04.384Z,3.40
2022-11-15T17:09:32.230Z,3.33
2022-11-15T17:11:58.640Z,4.17
2022-11-15T17:14:24.791Z,4.03
2022-11-15T17:16:50.984Z,6.13
2022-11-15T17:19:20.495Z,4.47
2022-11-15T17:21:50.948Z,5.03
2022-11-15T17:24:17.375Z,5.10
2022-11-15T17:26:43.669Z,5.27
2022-11-15T17:29:10.053Z,6.90
2022-11-15T17:31:39.127Z,4.70
2022-11-15T17:34:06.446Z,4.80
2022-11-15T17:36:33.372Z,6.13
2022-11-15T17:39:00.239Z,5.27
2022-11-15T17:41:28.430Z,5.17
2022-11-15T17:43:59.216Z,6.87
2022-11-15T17:46:29.598Z,8.93
2022-11-15T17:48:57.293Z,7.10
2022-11-15T17:51:23.497Z,6.33
2022-11-15T17:53:50.637Z,8.00
2022-11-15T17:56:24.954Z,6.10
2022-11-15T17:58:58.256Z,6.53
2022-11-15T18:01:33.631Z,8.53
2022-11-15T18:04:02.973Z,7.03
2022-11-15T18:06:32.772Z,7.43
2022-11-15T18:08:59.996Z,6.93
2022-11-15T18:11:32.783Z,5.53
2022-11-15T18:14:02.778Z,6.73
2022-11-15T18:16:35.580Z,8.43
2022-11-15T18:19:07.963Z,7.10
2022-11-15T18:21:54.685Z,7.80
2022-11-15T18:24:23.261Z,7.20
2022-11-15T18:26:49.477Z,7.43
2022-11-15T18:29:15.822Z,7.23
2022-11-15T18:31:47.451Z,11.20
2022-11-15T18:34:14.083Z,8.33
2022-11-15T18:36:40.561Z,8.30
2022-11-15T18:39:06.869Z,10.27
2022-11-15T18:41:33.923Z,8.10
2022-11-15T18:44:01.842Z,8.03
2022-11-15T18:46:32.835Z,12.87
2022-11-15T18:49:00.836Z,16.57
2022-11-15T18:51:30.677Z,9.57
2022-11-15T18:54:00.345Z,8.83
2022-11-15T18:56:29.094Z,7.10
2022-11-15T18:58:59.512Z,7.60
2022-11-15T19:01:33.684Z,6.80
2022-11-15T19:04:12.590Z,7.27
2022-11-15T19:06:44.413Z,7.00
2022-11-15T19:09:15.258Z,7.37
2022-11-15T19:11:43.811Z,6.10
2022-11-15T19:14:12.870Z,6.23
2022-11-15T19:16:44.040Z,10.07
2022-11-15T19:19:15.566Z,7.27
2022-11-15T19:21:42.242Z,6.53
2022-11-15T19:24:09.803Z,5.53
2022-11-15T19:26:37.065Z,6.80
2022-11-15T19:29:07.130Z,6.30
2022-11-15T19:31:33.753Z,6.80
2022-11-15T19:34:05.729Z,5.53
2022-11-15T19:36:38.560Z,7.00
2022-11-15T19:39:09.031Z,7.03
2022-11-15T19:41:37.745Z,6.23
2022-11-15T19:44:05.322Z,12.27
2022-11-15T19:46:31.712Z,5.43
2022-11-15T19:48:57.883Z,5.00
2022-11-15T19:51:28.473Z,5.27
2022-11-15T19:54:02.792Z,6.80
2022-11-15T19:56:28.989Z,5.37
2022-11-15T19:58:56.247Z,5.70
2022-11-15T20:01:29.489Z,8.60
2022-11-15T20:03:58.871Z,6.10
2022-11-15T20:06:31.672Z,6.53
2022-11-15T20:08:58.642Z,11.13
2022-11-15T20:11:25.770Z,5.77
2022-11-15T20:14:01.239Z,4.87
2022-11-15T20:16:27.472Z,5.87
2022-11-15T20:18:54.044Z,6.60
2022-11-15T20:21:21.149Z,6.57
2022-11-15T20:23:49.855Z,5.23
2022-11-15T20:26:16.142Z,4.03
2022-11-15T20:28:44.025Z,5.50
2022-11-15T20:31:11.223Z,5.13
2022-11-15T20:33:37.836Z,5.27
2022-11-15T20:36:08.801Z,6.47
2022-11-15T20:38:35.418Z,5.77
2022-11-15T20:41:02.287Z,6.60
2022-11-15T20:43:28.836Z,5.40
2022-11-15T20:45:55.220Z,5.63
2022-11-15T20:48:21.484Z,6.53
2022-11-15T20:50:47.880Z,5.37
2022-11-15T20:53:17.945Z,5.77
2022-11-15T20:55:48.135Z,5.57
2022-11-15T20:58:16.931Z,5.10
2022-11-15T21:00:44.922Z,5.07
2022-11-15T21:03:13.010Z,5.70
2022-11-15T21:05:42.323Z,5.17
2022-11-15T21:08:10.876Z,5.63
2022-11-15T21:10:57.373Z,7.10
2022-11-15T21:13:23.520Z,5.83
2022-11-15T21:15:49.731Z,4.13
2022-11-15T21:18:16.007Z,4.90
2022-11-15T21:20:42.605Z,5.53
2022-11-15T21:23:09.354Z,3.80
2022-11-15T21:25:35.568Z,4.03
2022-11-15T21:28:02.129Z,4.87
2022-11-15T21:30:28.261Z,5.50
2022-11-15T21:32:54.461Z,4.97
2022-11-15T21:35:20.632Z,4.77
2022-11-15T21:37:54.964Z,5.67
2022-11-15T21:40:23.433Z,6.13
2022-11-15T21:42:49.847Z,4.43
2022-11-15T21:45:16.131Z,7.00
2022-11-15T21:47:46.096Z,5.57
2022-11-15T21:50:13.541Z,11.80
2022-11-15T21:52:39.858Z,6.00
2022-11-15T21:55:06.471Z,6.40
2022-11-15T21:57:32.697Z,5.33
2022-11-15T22:00:17.687Z,6.30
2022-11-15T22:02:44.075Z,6.93
2022-11-15T22:05:10.242Z,4.80
2022-11-15T22:07:36.511Z,5.90
2022-11-15T22:10:03.391Z,5.03
2022-11-15T22:12:29.928Z,8.80
2022-11-15T22:14:56.625Z,5.87
2022-11-15T22:17:23.870Z,5.20
2022-11-15T22:19:52.799Z,4.50
2022-11-15T22:22:19.334Z,6.27
2022-11-15T22:24:45.542Z,6.63
2022-11-15T22:27:11.705Z,5.83
2022-11-15T22:29:37.837Z,4.73
2022-11-15T22:32:04.156Z,4.67
2022-11-15T22:34:30.396Z,4.93
2022-11-15T22:37:19.812Z,7.80
2022-11-15T22:39:42.815Z,6.00
2022-11-15T22:42:08.948Z,4.80
2022-11-15T22:44:35.099Z,5.17
2022-11-15T22:47:01.232Z,6.17
2022-11-15T22:49:27.717Z,5.90
2022-11-15T22:51:53.874Z,4.60
2022-11-15T22:54:20.045Z,4.77
2022-11-15T22:56:46.279Z,5.27
2022-11-15T22:59:12.423Z,4.70
2022-11-15T23:01:38.809Z,5.90
2022-11-15T23:04:05.023Z,4.77
2022-11-15T23:06:31.282Z,4.47
2022-11-15T23:08:57.427Z,5.53
2022-11-15T23:11:42.253Z,4.20
2022-11-15T23:14:08.445Z,5.60
2022-11-15T23:16:34.793Z,5.50
2022-11-15T23:19:07.479Z,5.73
2022-11-15T23:21:55.841Z,5.43
2022-11-15T23:24:22.824Z,6.13
2022-11-15T23:26:55.720Z,5.60
2022-11-15T23:29:24.496Z,5.30
2022-11-15T23:32:10.970Z,5.77
2022-11-15T23:34:43.200Z,9.30
2022-11-15T23:37:13.669Z,5.97
2022-11-15T23:39:40.182Z,5.07
2022-11-15T23:42:09.349Z,4.77
2022-11-15T23:44:36.385Z,6.93
2022-11-15T23:47:02.831Z,6.97
2022-11-15T23:49:29.009Z,7.40
2022-11-15T23:51:55.145Z,6.80
2022-11-15T23:54:21.305Z,7.20
2022-11-15T23:56:47.460Z,6.83
2022-11-15T23:59:13.696Z,7.10
